Rangeley, Maine
Current Conditions -  °F | °C
As of 7:07 AM on Sunday 25 Jan 2015 (Local Time) from KBML Reporting Station
Light Snow Light Snow  
Wind Chill: 17°   Ceiling: 3700
Heat Index: 28°   Visibility: 5mi
Dew Point: 20°   Wind: 14mph
Humidity: 72%   Direction: 280°W
Pressure: 29.32"   Gusts: 25mph
Location:  44.97°N, 70.65°W
Report Text: KBML 251207Z AUTO 28012G22KT 230V320 5SM -SN SCT018 OVC037 M02/M07 A2932 RMK AO2 P0000 T10221067
Loading
Personal Weather Stations






























Interactive Weather Map New forecast layout! Learn more

10-Day Weather Forecast

Advertisements
Track Severe Weather on mobile